sensor_id;sensor_type;location;lat;lon;timestamp;pressure;altitude;pressure_sealevel;temperature;humidity
44359;BME280;30077;52.474;13.326;2022-12-18T00:04:24;102609.72;;;-4.41;100.00
44359;BME280;30077;52.474;13.326;2022-12-18T00:09:24;102618.34;;;-4.24;100.00
44359;BME280;30077;52.474;13.326;2022-12-18T00:14:25;102623.22;;;-4.12;100.00
44359;BME280;30077;52.474;13.326;2022-12-18T00:19:25;102614.84;;;-4.05;100.00
44359;BME280;30077;52.474;13.326;2022-12-18T00:24:25;102619.91;;;-4.08;100.00
44359;BME280;30077;52.474;13.326;2022-12-18T00:29:26;102607.13;;;-4.21;100.00
44359;BME280;30077;52.474;13.326;2022-12-18T00:34:26;102616.31;;;-4.29;100.00
44359;BME280;30077;52.474;13.326;2022-12-18T00:39:26;102616.84;;;-4.37;100.00
44359;BME280;30077;52.474;13.326;2022-12-18T00:44:27;102606.56;;;-4.33;100.00
44359;BME280;30077;52.474;13.326;2022-12-18T00:49:28;102615.44;;;-4.30;100.00
44359;BME280;30077;52.474;13.326;2022-12-18T00:54:29;102604.94;;;-4.31;100.00
44359;BME280;30077;52.474;13.326;2022-12-18T00:59:29;102598.19;;;-4.46;100.00
44359;BME280;30077;52.474;13.326;2022-12-18T01:04:33;102603.78;;;-4.56;100.00
44359;BME280;30077;52.474;13.326;2022-12-18T01:09:34;102609.41;;;-4.47;100.00
44359;BME280;30077;52.474;13.326;2022-12-18T01:14:34;102619.56;;;-4.53;100.00
44359;BME280;30077;52.474;13.326;2022-12-18T01:19:34;102625.34;;;-4.58;100.00
44359;BME280;30077;52.474;13.326;2022-12-18T01:24:35;102638.00;;;-4.66;100.00
44359;BME280;30077;52.474;13.326;2022-12-18T01:29:36;102638.16;;;-4.63;100.00
44359;BME280;30077;52.474;13.326;2022-12-18T01:34:37;102638.47;;;-4.57;100.00
44359;BME280;30077;52.474;13.326;2022-12-18T01:39:37;102635.75;;;-4.41;100.00
44359;BME280;30077;52.474;13.326;2022-12-18T01:45:04;102646.03;;;-4.44;100.00
44359;BME280;30077;52.474;13.326;2022-12-18T01:50:08;102649.94;;;-4.53;100.00
44359;BME280;30077;52.474;13.326;2022-12-18T01:55:10;102649.94;;;-4.71;100.00
44359;BME280;30077;52.474;13.326;2022-12-18T02:00:17;102652.16;;;-4.61;100.00
44359;BME280;30077;52.474;13.326;2022-12-18T02:05:54;102641.88;;;-4.58;100.00
44359;BME280;30077;52.474;13.326;2022-12-18T02:11:20;102651.13;;;-4.65;100.00
44359;BME280;30077;52.474;13.326;2022-12-18T02:16:28;102649.16;;;-4.69;100.00
44359;BME280;30077;52.474;13.326;2022-12-18T02:21:49;102651.53;;;-4.73;100.00
44359;BME280;30077;52.474;13.326;2022-12-18T02:26:56;102661.06;;;-4.92;100.00
44359;BME280;30077;52.474;13.326;2022-12-18T02:32:06;102652.72;;;-4.85;100.00
44359;BME280;30077;52.474;13.326;2022-12-18T02:37:12;102668.19;;;-4.88;100.00
44359;BME280;30077;52.474;13.326;2022-12-18T02:42:14;102670.44;;;-4.77;100.00
44359;BME280;30077;52.474;13.326;2022-12-18T02:47:18;102665.25;;;-4.77;100.00
44359;BME280;30077;52.474;13.326;2022-12-18T02:52:42;102675.34;;;-4.84;100.00
44359;BME280;30077;52.474;13.326;2022-12-18T02:58:03;102670.78;;;-4.88;100.00
44359;BME280;30077;52.474;13.326;2022-12-18T03:03:15;102673.72;;;-4.81;100.00
44359;BME280;30077;52.474;13.326;2022-12-18T03:08:24;102660.91;;;-4.77;100.00
44359;BME280;30077;52.474;13.326;2022-12-18T03:13:37;102672.06;;;-4.79;100.00
44359;BME280;30077;52.474;13.326;2022-12-18T03:18:46;102671.94;;;-4.82;100.00
44359;BME280;30077;52.474;13.326;2022-12-18T03:23:49;102674.91;;;-4.93;100.00
44359;BME280;30077;52.474;13.326;2022-12-18T03:28:55;102673.25;;;-4.91;100.00
44359;BME280;30077;52.474;13.326;2022-12-18T03:33:59;102678.44;;;-4.91;100.00
44359;BME280;30077;52.474;13.326;2022-12-18T03:39:01;102675.28;;;-4.85;100.00
44359;BME280;30077;52.474;13.326;2022-12-18T03:44:14;102675.19;;;-4.87;100.00
44359;BME280;30077;52.474;13.326;2022-12-18T03:49:25;102679.75;;;-4.82;100.00
44359;BME280;30077;52.474;13.326;2022-12-18T03:54:29;102678.44;;;-4.91;100.00
44359;BME280;30077;52.474;13.326;2022-12-18T03:59:31;102669.84;;;-4.90;100.00
44359;BME280;30077;52.474;13.326;2022-12-18T04:04:35;102673.41;;;-4.88;100.00
44359;BME280;30077;52.474;13.326;2022-12-18T04:09:38;102687.75;;;-4.96;100.00
44359;BME280;30077;52.474;13.326;2022-12-18T04:14:39;102684.09;;;-4.99;100.00
44359;BME280;30077;52.474;13.326;2022-12-18T04:19:40;102685.00;;;-4.99;100.00
44359;BME280;30077;52.474;13.326;2022-12-18T04:24:40;102696.66;;;-4.91;100.00
44359;BME280;30077;52.474;13.326;2022-12-18T04:29:40;102698.47;;;-4.90;100.00
44359;BME280;30077;52.474;13.326;2022-12-18T04:34:40;102701.97;;;-4.89;100.00
44359;BME280;30077;52.474;13.326;2022-12-18T04:39:41;102710.91;;;-4.84;100.00
44359;BME280;30077;52.474;13.326;2022-12-18T04:44:41;102708.38;;;-4.82;100.00
44359;BME280;30077;52.474;13.326;2022-12-18T04:49:41;102707.91;;;-4.92;100.00
44359;BME280;30077;52.474;13.326;2022-12-18T04:54:41;102697.34;;;-4.95;100.00
44359;BME280;30077;52.474;13.326;2022-12-18T04:59:42;102713.78;;;-4.96;100.00
44359;BME280;30077;52.474;13.326;2022-12-18T05:04:43;102713.56;;;-5.00;100.00
44359;BME280;30077;52.474;13.326;2022-12-18T05:09:45;102717.13;;;-4.98;100.00
44359;BME280;30077;52.474;13.326;2022-12-18T05:14:45;102729.34;;;-4.97;100.00
44359;BME280;30077;52.474;13.326;2022-12-18T05:19:45;102720.03;;;-4.92;100.00
44359;BME280;30077;52.474;13.326;2022-12-18T05:24:46;102731.69;;;-5.02;100.00
44359;BME280;30077;52.474;13.326;2022-12-18T05:29:46;102743.81;;;-5.02;100.00
44359;BME280;30077;52.474;13.326;2022-12-18T05:34:46;102755.59;;;-5.09;100.00
44359;BME280;30077;52.474;13.326;2022-12-18T05:39:46;102752.19;;;-5.08;100.00
44359;BME280;30077;52.474;13.326;2022-12-18T05:44:47;102743.25;;;-5.13;100.00
44359;BME280;30077;52.474;13.326;2022-12-18T05:49:47;102758.13;;;-5.11;100.00
44359;BME280;30077;52.474;13.326;2022-12-18T05:54:47;102755.44;;;-5.12;100.00
44359;BME280;30077;52.474;13.326;2022-12-18T05:59:47;102757.41;;;-5.08;100.00
44359;BME280;30077;52.474;13.326;2022-12-18T06:04:48;102769.75;;;-5.04;100.00
44359;BME280;30077;52.474;13.326;2022-12-18T06:09:48;102779.13;;;-5.07;100.00
44359;BME280;30077;52.474;13.326;2022-12-18T06:14:49;102782.22;;;-5.15;100.00
44359;BME280;30077;52.474;13.326;2022-12-18T06:19:49;102774.72;;;-5.25;100.00
44359;BME280;30077;52.474;13.326;2022-12-18T06:24:50;102783.44;;;-5.08;100.00
44359;BME280;30077;52.474;13.326;2022-12-18T06:29:51;102774.16;;;-5.03;100.00
44359;BME280;30077;52.474;13.326;2022-12-18T06:34:51;102788.53;;;-5.10;100.00
44359;BME280;30077;52.474;13.326;2022-12-18T06:39:54;102802.94;;;-5.16;100.00
44359;BME280;30077;52.474;13.326;2022-12-18T06:44:56;102808.94;;;-5.17;100.00
44359;BME280;30077;52.474;13.326;2022-12-18T06:49:56;102806.41;;;-5.16;100.00
44359;BME280;30077;52.474;13.326;2022-12-18T06:54:56;102833.66;;;-5.09;100.00
44359;BME280;30077;52.474;13.326;2022-12-18T06:59:57;102826.75;;;-5.09;100.00
44359;BME280;30077;52.474;13.326;2022-12-18T07:04:57;102826.69;;;-5.10;100.00
44359;BME280;30077;52.474;13.326;2022-12-18T07:09:58;102818.06;;;-5.09;100.00
44359;BME280;30077;52.474;13.326;2022-12-18T07:14:59;102823.59;;;-5.03;100.00
44359;BME280;30077;52.474;13.326;2022-12-18T07:20:00;102824.72;;;-4.98;100.00
44359;BME280;30077;52.474;13.326;2022-12-18T07:25:00;102823.34;;;-4.91;100.00
44359;BME280;30077;52.474;13.326;2022-12-18T07:30:01;102820.84;;;-4.90;100.00
44359;BME280;30077;52.474;13.326;2022-12-18T07:35:01;102831.09;;;-4.93;100.00
44359;BME280;30077;52.474;13.326;2022-12-18T07:40:01;102822.13;;;-4.98;100.00
44359;BME280;30077;52.474;13.326;2022-12-18T07:45:02;102829.94;;;-4.81;100.00
44359;BME280;30077;52.474;13.326;2022-12-18T07:50:03;102828.88;;;-4.85;100.00
44359;BME280;30077;52.474;13.326;2022-12-18T07:55:04;102808.50;;;-4.76;100.00
44359;BME280;30077;52.474;13.326;2022-12-18T08:00:05;102818.38;;;-4.70;100.00
44359;BME280;30077;52.474;13.326;2022-12-18T08:05:06;102823.75;;;-4.67;100.00
44359;BME280;30077;52.474;13.326;2022-12-18T08:10:06;102830.88;;;-4.63;100.00
44359;BME280;30077;52.474;13.326;2022-12-18T08:15:08;102831.78;;;-4.63;100.00
44359;BME280;30077;52.474;13.326;2022-12-18T08:20:08;102842.28;;;-4.61;100.00
44359;BME280;30077;52.474;13.326;2022-12-18T08:25:09;102836.09;;;-4.63;100.00
44359;BME280;30077;52.474;13.326;2022-12-18T08:30:10;102841.03;;;-4.51;100.00
44359;BME280;30077;52.474;13.326;2022-12-18T08:35:10;102841.75;;;-4.54;100.00
44359;BME280;30077;52.474;13.326;2022-12-18T08:40:12;102854.44;;;-4.44;100.00
44359;BME280;30077;52.474;13.326;2022-12-18T08:45:12;102856.72;;;-4.33;100.00
44359;BME280;30077;52.474;13.326;2022-12-18T08:50:13;102863.31;;;-4.24;100.00
44359;BME280;30077;52.474;13.326;2022-12-18T08:55:13;102878.19;;;-4.21;100.00
44359;BME280;30077;52.474;13.326;2022-12-18T09:00:13;102880.94;;;-4.18;100.00
44359;BME280;30077;52.474;13.326;2022-12-18T09:05:14;102883.72;;;-4.15;100.00
44359;BME280;30077;52.474;13.326;2022-12-18T09:10:14;102892.97;;;-4.04;100.00
44359;BME280;30077;52.474;13.326;2022-12-18T09:15:14;102885.69;;;-3.93;100.00
44359;BME280;30077;52.474;13.326;2022-12-18T09:20:15;102896.28;;;-3.72;100.00
44359;BME280;30077;52.474;13.326;2022-12-18T09:25:16;102889.72;;;-3.82;100.00
44359;BME280;30077;52.474;13.326;2022-12-18T09:30:16;102879.66;;;-3.74;100.00
44359;BME280;30077;52.474;13.326;2022-12-18T09:35:16;102893.47;;;-3.77;100.00
44359;BME280;30077;52.474;13.326;2022-12-18T09:40:20;102876.31;;;-3.54;100.00
44359;BME280;30077;52.474;13.326;2022-12-18T09:45:21;102877.03;;;-3.39;100.00
44359;BME280;30077;52.474;13.326;2022-12-18T09:55:37;102866.03;;;-3.51;98.85
44359;BME280;30077;52.474;13.326;2022-12-18T10:00:42;102845.00;;;-3.54;100.00
44359;BME280;30077;52.474;13.326;2022-12-18T10:10:51;102824.44;;;-3.66;100.00
44359;BME280;30077;52.474;13.326;2022-12-18T10:21:21;102827.81;;;-3.49;100.00
44359;BME280;30077;52.474;13.326;2022-12-18T10:26:25;102829.75;;;-3.27;100.00
44359;BME280;30077;52.474;13.326;2022-12-18T10:31:25;102822.13;;;-3.22;100.00
44359;BME280;30077;52.474;13.326;2022-12-18T10:36:26;102820.31;;;-3.23;100.00
44359;BME280;30077;52.474;13.326;2022-12-18T10:41:26;102810.25;;;-3.16;100.00
44359;BME280;30077;52.474;13.326;2022-12-18T10:46:27;102812.78;;;-3.17;100.00
44359;BME280;30077;52.474;13.326;2022-12-18T10:51:30;102801.09;;;-3.06;100.00
44359;BME280;30077;52.474;13.326;2022-12-18T10:56:34;102785.16;;;-2.93;100.00
44359;BME280;30077;52.474;13.326;2022-12-18T11:01:52;102779.25;;;-2.88;100.00
44359;BME280;30077;52.474;13.326;2022-12-18T11:07:07;102772.38;;;-2.86;100.00
44359;BME280;30077;52.474;13.326;2022-12-18T11:12:19;102781.25;;;-2.62;100.00
44359;BME280;30077;52.474;13.326;2022-12-18T11:17:33;102781.53;;;-2.56;100.00
44359;BME280;30077;52.474;13.326;2022-12-18T11:22:36;102778.34;;;-2.49;100.00
44359;BME280;30077;52.474;13.326;2022-12-18T11:27:37;102781.94;;;-2.47;100.00
44359;BME280;30077;52.474;13.326;2022-12-18T11:32:39;102779.97;;;-2.51;100.00
44359;BME280;30077;52.474;13.326;2022-12-18T11:37:47;102766.72;;;-2.55;100.00
44359;BME280;30077;52.474;13.326;2022-12-18T11:42:58;102772.66;;;-2.38;100.00
44359;BME280;30077;52.474;13.326;2022-12-18T11:48:16;102789.50;;;-2.53;100.00
44359;BME280;30077;52.474;13.326;2022-12-18T11:53:17;102794.25;;;-2.63;100.00
44359;BME280;30077;52.474;13.326;2022-12-18T12:19:18;102810.44;;;-2.72;100.00
44359;BME280;30077;52.474;13.326;2022-12-18T12:30:19;102819.63;;;-2.40;100.00
44359;BME280;30077;52.474;13.326;2022-12-18T12:41:17;102827.25;;;-2.66;100.00
44359;BME280;30077;52.474;13.326;2022-12-18T12:46:39;102833.41;;;-2.65;100.00
44359;BME280;30077;52.474;13.326;2022-12-18T12:51:45;102805.47;;;-2.66;100.00
44359;BME280;30077;52.474;13.326;2022-12-18T12:57:19;102786.47;;;-2.62;100.00
44359;BME280;30077;52.474;13.326;2022-12-18T13:02:39;102764.75;;;-2.61;100.00
44359;BME280;30077;52.474;13.326;2022-12-18T13:07:49;102774.66;;;-2.54;100.00
44359;BME280;30077;52.474;13.326;2022-12-18T13:13:01;102777.81;;;-2.61;100.00
44359;BME280;30077;52.474;13.326;2022-12-18T13:23:33;102774.38;;;-2.60;100.00
44359;BME280;30077;52.474;13.326;2022-12-18T13:33:47;102763.69;;;-2.45;100.00
44359;BME280;30077;52.474;13.326;2022-12-18T13:44:39;102776.69;;;-2.47;100.00
44359;BME280;30077;52.474;13.326;2022-12-18T13:49:43;102751.44;;;-2.67;100.00
44359;BME280;30077;52.474;13.326;2022-12-18T13:54:56;102752.69;;;-2.78;100.00
44359;BME280;30077;52.474;13.326;2022-12-18T13:59:59;102763.41;;;-2.72;100.00
44359;BME280;30077;52.474;13.326;2022-12-18T14:05:24;102739.44;;;-2.83;100.00
44359;BME280;30077;52.474;13.326;2022-12-18T14:10:27;102751.19;;;-2.93;100.00
44359;BME280;30077;52.474;13.326;2022-12-18T14:15:41;102741.19;;;-3.03;100.00
44359;BME280;30077;52.474;13.326;2022-12-18T14:20:46;102729.09;;;-3.01;100.00
44359;BME280;30077;52.474;13.326;2022-12-18T14:25:47;102716.38;;;-2.93;100.00
44359;BME280;30077;52.474;13.326;2022-12-18T14:30:48;102702.47;;;-2.92;100.00
44359;BME280;30077;52.474;13.326;2022-12-18T14:35:58;102700.50;;;-3.17;100.00
44359;BME280;30077;52.474;13.326;2022-12-18T14:41:03;102696.13;;;-3.18;100.00
44359;BME280;30077;52.474;13.326;2022-12-18T14:46:43;102696.97;;;-3.19;100.00
44359;BME280;30077;52.474;13.326;2022-12-18T14:51:50;102687.41;;;-3.19;100.00
44359;BME280;30077;52.474;13.326;2022-12-18T15:07:21;102712.72;;;-3.16;100.00
44359;BME280;30077;52.474;13.326;2022-12-18T15:12:34;102722.94;;;-3.22;100.00
44359;BME280;30077;52.474;13.326;2022-12-18T15:17:34;102708.66;;;-3.30;100.00
44359;BME280;30077;52.474;13.326;2022-12-18T15:22:35;102703.16;;;-3.36;100.00
44359;BME280;30077;52.474;13.326;2022-12-18T15:27:36;102711.31;;;-3.29;100.00
44359;BME280;30077;52.474;13.326;2022-12-18T15:32:41;102709.25;;;-3.36;100.00
44359;BME280;30077;52.474;13.326;2022-12-18T15:37:42;102711.19;;;-3.32;100.00
44359;BME280;30077;52.474;13.326;2022-12-18T15:42:43;102730.81;;;-3.40;100.00
44359;BME280;30077;52.474;13.326;2022-12-18T15:48:21;102733.63;;;-3.55;100.00
44359;BME280;30077;52.474;13.326;2022-12-18T15:53:25;102721.81;;;-3.47;100.00
44359;BME280;30077;52.474;13.326;2022-12-18T15:58:27;102714.41;;;-3.57;100.00
44359;BME280;30077;52.474;13.326;2022-12-18T16:03:29;102713.78;;;-3.51;100.00
44359;BME280;30077;52.474;13.326;2022-12-18T16:08:30;102693.53;;;-3.57;100.00
44359;BME280;30077;52.474;13.326;2022-12-18T16:13:30;102693.28;;;-3.63;100.00
44359;BME280;30077;52.474;13.326;2022-12-18T16:18:31;102707.94;;;-3.65;100.00
44359;BME280;30077;52.474;13.326;2022-12-18T16:23:33;102696.53;;;-3.67;100.00
44359;BME280;30077;52.474;13.326;2022-12-18T16:28:33;102694.22;;;-3.61;100.00
44359;BME280;30077;52.474;13.326;2022-12-18T16:33:33;102688.31;;;-3.57;100.00
44359;BME280;30077;52.474;13.326;2022-12-18T16:38:33;102672.66;;;-3.57;100.00
44359;BME280;30077;52.474;13.326;2022-12-18T16:43:34;102671.75;;;-3.57;100.00
44359;BME280;30077;52.474;13.326;2022-12-18T16:48:34;102670.75;;;-3.61;100.00
44359;BME280;30077;52.474;13.326;2022-12-18T16:53:34;102679.84;;;-3.71;100.00
44359;BME280;30077;52.474;13.326;2022-12-18T16:58:35;102666.22;;;-3.84;100.00
44359;BME280;30077;52.474;13.326;2022-12-18T17:03:35;102676.06;;;-3.97;100.00
44359;BME280;30077;52.474;13.326;2022-12-18T17:08:35;102690.28;;;-3.90;100.00
44359;BME280;30077;52.474;13.326;2022-12-18T17:13:35;102688.72;;;-4.04;100.00
44359;BME280;30077;52.474;13.326;2022-12-18T17:18:36;102684.16;;;-4.10;100.00
44359;BME280;30077;52.474;13.326;2022-12-18T17:23:36;102688.22;;;-4.15;100.00
44359;BME280;30077;52.474;13.326;2022-12-18T17:28:38;102679.97;;;-4.24;100.00
44359;BME280;30077;52.474;13.326;2022-12-18T17:33:38;102677.13;;;-4.29;100.00
44359;BME280;30077;52.474;13.326;2022-12-18T17:38:43;102670.88;;;-4.32;100.00
44359;BME280;30077;52.474;13.326;2022-12-18T17:43:59;102670.88;;;-4.32;100.00
44359;BME280;30077;52.474;13.326;2022-12-18T17:49:01;102670.09;;;-4.31;100.00
44359;BME280;30077;52.474;13.326;2022-12-18T17:54:01;102660.47;;;-4.32;100.00
44359;BME280;30077;52.474;13.326;2022-12-18T17:59:03;102659.72;;;-4.30;100.00
44359;BME280;30077;52.474;13.326;2022-12-18T18:04:04;102639.78;;;-4.29;100.00
44359;BME280;30077;52.474;13.326;2022-12-18T18:09:04;102632.63;;;-4.33;100.00
44359;BME280;30077;52.474;13.326;2022-12-18T18:14:11;102630.56;;;-4.41;100.00
44359;BME280;30077;52.474;13.326;2022-12-18T18:19:14;102622.69;;;-4.42;100.00
44359;BME280;30077;52.474;13.326;2022-12-18T18:24:18;102616.50;;;-4.44;100.00
44359;BME280;30077;52.474;13.326;2022-12-18T18:29:22;102611.22;;;-4.46;100.00
44359;BME280;30077;52.474;13.326;2022-12-18T18:34:26;102598.88;;;-4.50;100.00
44359;BME280;30077;52.474;13.326;2022-12-18T18:39:28;102589.78;;;-4.58;100.00
44359;BME280;30077;52.474;13.326;2022-12-18T18:44:28;102591.72;;;-4.54;100.00
44359;BME280;30077;52.474;13.326;2022-12-18T18:49:29;102587.28;;;-4.56;100.00
44359;BME280;30077;52.474;13.326;2022-12-18T18:54:30;102575.13;;;-4.56;100.00
44359;BME280;30077;52.474;13.326;2022-12-18T18:59:30;102556.44;;;-4.65;100.00
44359;BME280;30077;52.474;13.326;2022-12-18T19:04:33;102557.97;;;-4.70;100.00
44359;BME280;30077;52.474;13.326;2022-12-18T19:09:35;102545.00;;;-4.69;100.00
44359;BME280;30077;52.474;13.326;2022-12-18T19:14:35;102544.06;;;-4.71;100.00
44359;BME280;30077;52.474;13.326;2022-12-18T19:19:37;102532.59;;;-4.74;100.00
44359;BME280;30077;52.474;13.326;2022-12-18T19:24:37;102529.16;;;-4.73;100.00
44359;BME280;30077;52.474;13.326;2022-12-18T19:29:38;102524.94;;;-4.71;100.00
44359;BME280;30077;52.474;13.326;2022-12-18T19:34:38;102519.19;;;-4.64;100.00
44359;BME280;30077;52.474;13.326;2022-12-18T19:39:39;102532.22;;;-4.64;100.00
44359;BME280;30077;52.474;13.326;2022-12-18T19:44:40;102525.00;;;-4.70;100.00
44359;BME280;30077;52.474;13.326;2022-12-18T19:49:40;102526.72;;;-4.70;100.00
44359;BME280;30077;52.474;13.326;2022-12-18T19:54:41;102528.63;;;-4.66;100.00
44359;BME280;30077;52.474;13.326;2022-12-18T19:59:41;102528.50;;;-4.69;100.00
44359;BME280;30077;52.474;13.326;2022-12-18T20:04:41;102533.84;;;-4.66;100.00
44359;BME280;30077;52.474;13.326;2022-12-18T20:09:42;102529.31;;;-4.70;100.00
44359;BME280;30077;52.474;13.326;2022-12-18T20:14:42;102510.56;;;-4.63;100.00
44359;BME280;30077;52.474;13.326;2022-12-18T20:19:42;102498.41;;;-4.63;100.00
44359;BME280;30077;52.474;13.326;2022-12-18T20:24:44;102495.44;;;-4.52;100.00
44359;BME280;30077;52.474;13.326;2022-12-18T20:29:45;102482.47;;;-4.51;100.00
44359;BME280;30077;52.474;13.326;2022-12-18T20:34:47;102484.66;;;-4.41;100.00
44359;BME280;30077;52.474;13.326;2022-12-18T20:39:47;102468.00;;;-4.44;100.00
44359;BME280;30077;52.474;13.326;2022-12-18T20:44:48;102462.44;;;-4.52;100.00
44359;BME280;30077;52.474;13.326;2022-12-18T20:49:48;102480.81;;;-4.49;100.00
44359;BME280;30077;52.474;13.326;2022-12-18T20:54:48;102486.03;;;-4.49;100.00
44359;BME280;30077;52.474;13.326;2022-12-18T20:59:49;102458.22;;;-4.50;100.00
44359;BME280;30077;52.474;13.326;2022-12-18T21:04:49;102458.31;;;-4.47;100.00
44359;BME280;30077;52.474;13.326;2022-12-18T21:09:49;102474.88;;;-4.46;100.00
44359;BME280;30077;52.474;13.326;2022-12-18T21:14:50;102449.47;;;-4.50;100.00
44359;BME280;30077;52.474;13.326;2022-12-18T21:19:50;102446.00;;;-4.51;100.00
44359;BME280;30077;52.474;13.326;2022-12-18T21:24:50;102444.34;;;-4.49;100.00
44359;BME280;30077;52.474;13.326;2022-12-18T21:29:51;102448.81;;;-4.46;100.00
44359;BME280;30077;52.474;13.326;2022-12-18T21:34:51;102447.50;;;-4.37;100.00
44359;BME280;30077;52.474;13.326;2022-12-18T21:39:51;102451.63;;;-4.42;100.00
44359;BME280;30077;52.474;13.326;2022-12-18T21:44:52;102462.19;;;-4.39;100.00
44359;BME280;30077;52.474;13.326;2022-12-18T21:49:52;102461.91;;;-4.45;100.00
44359;BME280;30077;52.474;13.326;2022-12-18T21:54:52;102465.19;;;-4.49;100.00
44359;BME280;30077;52.474;13.326;2022-12-18T21:59:53;102461.91;;;-4.45;100.00
44359;BME280;30077;52.474;13.326;2022-12-18T22:04:55;102452.38;;;-4.44;100.00
44359;BME280;30077;52.474;13.326;2022-12-18T22:09:55;102441.06;;;-4.45;100.00
44359;BME280;30077;52.474;13.326;2022-12-18T22:14:56;102434.41;;;-4.38;100.00
44359;BME280;30077;52.474;13.326;2022-12-18T22:19:57;102424.88;;;-4.38;100.00
44359;BME280;30077;52.474;13.326;2022-12-18T22:24:57;102399.66;;;-4.39;100.00
44359;BME280;30077;52.474;13.326;2022-12-18T22:29:57;102413.50;;;-4.40;100.00
44359;BME280;30077;52.474;13.326;2022-12-18T22:35:04;102399.84;;;-4.34;100.00
44359;BME280;30077;52.474;13.326;2022-12-18T22:40:05;102394.13;;;-4.25;100.00
44359;BME280;30077;52.474;13.326;2022-12-18T22:45:06;102376.88;;;-4.23;100.00
44359;BME280;30077;52.474;13.326;2022-12-18T22:50:10;102381.09;;;-4.25;99.54
44359;BME280;30077;52.474;13.326;2022-12-18T22:55:11;102354.53;;;-4.38;99.94
44359;BME280;30077;52.474;13.326;2022-12-18T23:00:11;102359.34;;;-4.47;100.00
44359;BME280;30077;52.474;13.326;2022-12-18T23:05:12;102343.72;;;-4.47;100.00
44359;BME280;30077;52.474;13.326;2022-12-18T23:10:12;102327.16;;;-4.49;100.00
44359;BME280;30077;52.474;13.326;2022-12-18T23:15:12;102322.63;;;-4.53;100.00
44359;BME280;30077;52.474;13.326;2022-12-18T23:20:13;102304.81;;;-4.63;100.00
44359;BME280;30077;52.474;13.326;2022-12-18T23:25:13;102305.72;;;-4.63;100.00
44359;BME280;30077;52.474;13.326;2022-12-18T23:30:13;102289.47;;;-4.57;100.00
44359;BME280;30077;52.474;13.326;2022-12-18T23:35:15;102299.75;;;-4.60;100.00
44359;BME280;30077;52.474;13.326;2022-12-18T23:40:16;102294.69;;;-4.57;100.00
44359;BME280;30077;52.474;13.326;2022-12-18T23:45:16;102276.38;;;-4.58;100.00
44359;BME280;30077;52.474;13.326;2022-12-18T23:50:17;102265.19;;;-4.56;100.00
44359;BME280;30077;52.474;13.326;2022-12-18T23:55:17;102258.47;;;-4.51;100.00
